Time;durP1;ratioP1;P1;durP2;ratioP2;P2;SDS_P1;SDS_P2;PMS_P1;PMS_P2;Temp;Humidity;BMP_temperature;BMP_pressure;BME280_temperature;BME280_humidity;BME280_pressure;Samples;Min_cycle;Max_cycle;Signal;HPM_P1;HPM_P2
2021/03/31 00:01:40;;;;;;;6.37;4.90;;;;;;;;;;5021719;28;20445;-71
2021/03/31 00:04:05;;;;;;;8.20;6.00;;;;;;;;;;5033591;28;20437;-71
2021/03/31 00:06:31;;;;;;;7.63;6.80;;;;;;;;;;5035813;28;20537;-71
2021/03/31 00:08:57;;;;;;;15.50;5.43;;;;;;;;;;5026049;28;21042;-72
2021/03/31 00:11:24;;;;;;;8.90;5.20;;;;;;;;;;5018193;28;20461;-73
2021/03/31 00:13:50;;;;;;;7.07;5.82;;;;;;;;;;5037744;28;20433;-73
2021/03/31 00:16:15;;;;;;;9.37;5.60;;;;;;;;;;5025690;28;20205;-72
2021/03/31 00:18:41;;;;;;;8.00;5.57;;;;;;;;;;5034519;28;20775;-71
2021/03/31 00:21:07;;;;;;;7.80;5.17;;;;;;;;;;5032109;28;20444;-71
2021/03/31 00:23:34;;;;;;;8.90;6.20;;;;;;;;;;5024352;28;20500;-71
2021/03/31 00:26:00;;;;;;;5.65;4.90;;;;;;;;;;5032340;28;20525;-72
2021/03/31 00:28:26;;;;;;;6.28;5.30;;;;;;;;;;5036837;28;20217;-71
2021/03/31 00:30:53;;;;;;;6.35;4.85;;;;;;;;;;5043241;22;20701;-71
2021/03/31 00:33:20;;;;;;;5.40;4.88;;;;;;;;;;5012796;28;20190;-69
2021/03/31 00:35:46;;;;;;;6.70;4.85;;;;;;;;;;5012185;28;20262;-69
2021/03/31 00:38:11;;;;;;;5.60;4.77;;;;;;;;;;5013390;28;20257;-70
2021/03/31 00:40:37;;;;;;;8.27;5.40;;;;;;;;;;5012499;28;20461;-70
2021/03/31 00:43:03;;;;;;;7.73;4.60;;;;;;;;;;5003582;28;20798;-70
2021/03/31 00:45:30;;;;;;;6.57;4.70;;;;;;;;;;5005877;28;20403;-68
2021/03/31 00:47:55;;;;;;;6.28;4.88;;;;;;;;;;5013012;28;20175;-69
2021/03/31 00:50:21;;;;;;;5.67;4.80;;;;;;;;;;5012938;28;20708;-70
2021/03/31 00:52:49;;;;;;;6.07;4.47;;;;;;;;;;5011800;28;20425;-69
2021/03/31 00:55:17;;;;;;;5.90;4.60;;;;;;;;;;5006223;28;20513;-70
2021/03/31 00:57:43;;;;;;;8.93;5.30;;;;;;;;;;5007131;28;20191;-70
2021/03/31 01:00:10;;;;;;;6.00;4.70;;;;;;;;;;5000583;28;20179;-70
2021/03/31 01:02:39;;;;;;;7.88;5.32;;;;;;;;;;5011162;28;20537;-69
2021/03/31 01:05:07;;;;;;;6.20;5.18;;;;;;;;;;5009366;28;20187;-70
2021/03/31 01:07:33;;;;;;;8.70;4.97;;;;;;;;;;5009341;28;20179;-70
2021/03/31 01:09:59;;;;;;;6.80;5.87;;;;;;;;;;4996909;28;20209;-71
2021/03/31 01:12:47;;;;;;;11.50;6.03;;;;;;;;;;5009533;28;20434;-71
2021/03/31 01:15:31;;;;;;;5.93;4.97;;;;;;;;;;5008901;28;20225;-70
2021/03/31 01:18:16;;;;;;;8.90;5.97;;;;;;;;;;5010287;28;20274;-71
2021/03/31 01:20:48;;;;;;;8.02;5.00;;;;;;;;;;4992957;28;20230;-69
2021/03/31 01:23:29;;;;;;;8.98;5.30;;;;;;;;;;4993769;28;20183;-71
2021/03/31 01:26:00;;;;;;;7.70;5.40;;;;;;;;;;5009381;28;20197;-70
2021/03/31 01:28:41;;;;;;;7.43;5.28;;;;;;;;;;5002741;28;20191;-70
2021/03/31 01:31:07;;;;;;;13.27;6.00;;;;;;;;;;5007146;28;20237;-71
2021/03/31 01:33:51;;;;;;;8.23;5.23;;;;;;;;;;5011685;28;20205;-70
2021/03/31 01:36:19;;;;;;;5.68;4.60;;;;;;;;;;5011691;28;20440;-71
2021/03/31 01:38:51;;;;;;;7.28;4.82;;;;;;;;;;5003750;28;20190;-69
2021/03/31 01:41:18;;;;;;;6.85;5.13;;;;;;;;;;5010777;28;20222;-71
2021/03/31 01:43:48;;;;;;;6.30;4.65;;;;;;;;;;5001300;28;20245;-69
2021/03/31 01:46:14;;;;;;;5.65;4.82;;;;;;;;;;5006221;28;20186;-70
2021/03/31 01:48:41;;;;;;;8.95;4.90;;;;;;;;;;5011767;28;20236;-70
2021/03/31 01:51:08;;;;;;;7.82;4.60;;;;;;;;;;5008024;28;20230;-70
2021/03/31 01:53:34;;;;;;;5.85;4.72;;;;;;;;;;5009916;28;20175;-69
2021/03/31 01:56:01;;;;;;;7.35;5.03;;;;;;;;;;5002298;28;20182;-70
2021/03/31 01:58:29;;;;;;;7.05;5.15;;;;;;;;;;5006804;28;20186;-70
2021/03/31 02:00:56;;;;;;;8.43;5.82;;;;;;;;;;5006967;28;20199;-70
2021/03/31 02:03:23;;;;;;;8.10;5.15;;;;;;;;;;5011502;28;20213;-70
2021/03/31 02:05:49;;;;;;;5.97;4.90;;;;;;;;;;5007838;28;20183;-69
2021/03/31 02:08:16;;;;;;;6.80;4.85;;;;;;;;;;5011067;28;20187;-70
2021/03/31 02:10:42;;;;;;;8.40;5.50;;;;;;;;;;5000189;28;20245;-69
2021/03/31 02:13:09;;;;;;;9.15;5.05;;;;;;;;;;5002661;28;20187;-70
2021/03/31 02:15:36;;;;;;;6.07;4.43;;;;;;;;;;5006710;28;20186;-70
2021/03/31 02:18:05;;;;;;;10.75;5.30;;;;;;;;;;5010828;28;20183;-69
2021/03/31 02:20:31;;;;;;;10.27;5.53;;;;;;;;;;4999354;28;20203;-70
2021/03/31 02:22:57;;;;;;;7.20;4.93;;;;;;;;;;5010588;28;20186;-71
2021/03/31 02:25:23;;;;;;;9.50;5.30;;;;;;;;;;5003502;28;20284;-68
2021/03/31 02:27:49;;;;;;;7.57;4.50;;;;;;;;;;5009090;28;20437;-70
2021/03/31 02:30:17;;;;;;;5.87;5.10;;;;;;;;;;4995582;28;20473;-70
2021/03/31 02:32:45;;;;;;;7.85;4.75;;;;;;;;;;4999619;28;20851;-70
2021/03/31 02:35:12;;;;;;;8.70;5.95;;;;;;;;;;5010535;28;20205;-70
2021/03/31 02:37:40;;;;;;;5.20;4.32;;;;;;;;;;5008098;28;20191;-69
2021/03/31 02:40:07;;;;;;;8.77;5.43;;;;;;;;;;4998974;28;20605;-70
2021/03/31 02:42:33;;;;;;;5.43;4.50;;;;;;;;;;5010183;28;20269;-70
2021/03/31 02:45:00;;;;;;;8.30;4.82;;;;;;;;;;5009747;28;20183;-70
2021/03/31 02:47:28;;;;;;;5.93;4.88;;;;;;;;;;5011693;28;20229;-70
2021/03/31 02:49:55;;;;;;;6.28;5.55;;;;;;;;;;5006229;28;20567;-69
2021/03/31 02:52:23;;;;;;;6.22;4.75;;;;;;;;;;5008317;28;20199;-70
2021/03/31 02:54:49;;;;;;;10.10;4.50;;;;;;;;;;5006995;28;20174;-69
2021/03/31 02:57:15;;;;;;;6.60;4.90;;;;;;;;;;5009293;28;20236;-69
2021/03/31 02:59:42;;;;;;;8.43;5.40;;;;;;;;;;5005470;28;20262;-71
2021/03/31 03:02:09;;;;;;;5.30;4.75;;;;;;;;;;5014428;28;20202;-71
2021/03/31 03:04:35;;;;;;;5.47;4.93;;;;;;;;;;5010647;28;20205;-69
2021/03/31 03:07:02;;;;;;;8.10;6.30;;;;;;;;;;5001639;28;20215;-70
2021/03/31 03:09:28;;;;;;;10.02;5.38;;;;;;;;;;5004747;28;20210;-71
2021/03/31 03:11:54;;;;;;;9.68;5.80;;;;;;;;;;5007607;28;20222;-70
2021/03/31 03:14:20;;;;;;;6.55;4.20;;;;;;;;;;5006246;28;20613;-70
2021/03/31 03:16:46;;;;;;;7.65;5.88;;;;;;;;;;5015250;28;20224;-70
2021/03/31 03:19:14;;;;;;;8.38;5.88;;;;;;;;;;5006687;28;20192;-70
2021/03/31 03:21:40;;;;;;;11.60;5.75;;;;;;;;;;5006179;28;20224;-70
2021/03/31 03:24:07;;;;;;;6.55;5.20;;;;;;;;;;5014609;28;20186;-70
2021/03/31 03:26:35;;;;;;;7.72;5.93;;;;;;;;;;5010933;28;20187;-71
2021/03/31 03:29:01;;;;;;;7.88;5.22;;;;;;;;;;5000919;28;20286;-70
2021/03/31 03:31:28;;;;;;;8.38;5.03;;;;;;;;;;5012080;28;20640;-69
2021/03/31 03:33:54;;;;;;;9.50;5.20;;;;;;;;;;5007999;28;20257;-70
2021/03/31 03:36:20;;;;;;;8.20;5.05;;;;;;;;;;5013270;28;20206;-69
2021/03/31 03:38:46;;;;;;;9.07;5.55;;;;;;;;;;5004434;28;20202;-70
2021/03/31 03:41:13;;;;;;;9.70;6.20;;;;;;;;;;5008913;28;20289;-71
2021/03/31 03:43:40;;;;;;;9.05;5.90;;;;;;;;;;5003902;28;20435;-70
2021/03/31 03:46:07;;;;;;;6.25;4.90;;;;;;;;;;5009393;28;20601;-70
2021/03/31 03:48:33;;;;;;;10.60;6.15;;;;;;;;;;5014102;28;20191;-71
2021/03/31 03:50:59;;;;;;;5.25;4.65;;;;;;;;;;5007789;28;20231;-69
2021/03/31 03:53:29;;;;;;;7.13;5.60;;;;;;;;;;4994858;28;20576;-70
2021/03/31 03:55:59;;;;;;;5.97;5.03;;;;;;;;;;5011935;28;20441;-70
2021/03/31 03:58:26;;;;;;;7.32;5.85;;;;;;;;;;5005460;28;20206;-70
2021/03/31 04:00:52;;;;;;;7.65;5.05;;;;;;;;;;5006781;28;20206;-70
2021/03/31 04:03:18;;;;;;;7.80;5.60;;;;;;;;;;5006682;28;20180;-71
2021/03/31 04:05:44;;;;;;;6.85;5.15;;;;;;;;;;5014029;28;20638;-70
2021/03/31 04:08:10;;;;;;;7.60;5.67;;;;;;;;;;5005587;28;20199;-70
2021/03/31 04:10:36;;;;;;;9.70;5.60;;;;;;;;;;5004817;28;21083;-70
2021/03/31 04:13:03;;;;;;;5.95;5.00;;;;;;;;;;5006685;28;20441;-70
2021/03/31 04:15:30;;;;;;;10.88;5.28;;;;;;;;;;5011716;28;20274;-70
2021/03/31 04:17:58;;;;;;;7.35;4.88;;;;;;;;;;5012525;28;20179;-70
2021/03/31 04:20:24;;;;;;;8.65;5.38;;;;;;;;;;4998904;28;20308;-70
2021/03/31 04:22:50;;;;;;;5.93;5.38;;;;;;;;;;5012236;28;20186;-70
2021/03/31 04:25:18;;;;;;;8.50;6.00;;;;;;;;;;5009936;28;20642;-70
2021/03/31 04:27:46;;;;;;;8.82;5.40;;;;;;;;;;5001581;28;20187;-70
2021/03/31 04:30:13;;;;;;;11.30;6.80;;;;;;;;;;5000992;28;20256;-70
2021/03/31 04:32:39;;;;;;;7.40;5.15;;;;;;;;;;5013064;28;20205;-71
2021/03/31 04:35:06;;;;;;;9.52;6.32;;;;;;;;;;5012357;28;20179;-70
2021/03/31 04:37:32;;;;;;;8.77;5.72;;;;;;;;;;4999066;28;20551;-71
2021/03/31 04:39:58;;;;;;;7.20;5.05;;;;;;;;;;4998334;28;20193;-70
2021/03/31 04:42:24;;;;;;;7.55;5.97;;;;;;;;;;5008580;28;20213;-70
2021/03/31 04:44:50;;;;;;;9.80;6.10;;;;;;;;;;4997981;28;20626;-69
2021/03/31 04:47:16;;;;;;;10.80;5.38;;;;;;;;;;5013221;28;20409;-69
2021/03/31 04:49:42;;;;;;;8.50;5.97;;;;;;;;;;4998580;28;20204;-69
2021/03/31 04:52:08;;;;;;;7.73;5.70;;;;;;;;;;5006219;28;20209;-68
2021/03/31 04:54:34;;;;;;;8.47;6.93;;;;;;;;;;5008044;28;20992;-70
2021/03/31 04:57:00;;;;;;;7.13;5.30;;;;;;;;;;5009690;28;20449;-70
2021/03/31 04:59:26;;;;;;;7.63;5.93;;;;;;;;;;5011425;28;20441;-70
2021/03/31 05:01:52;;;;;;;11.30;6.97;;;;;;;;;;5007243;28;20462;-70
2021/03/31 05:04:18;;;;;;;7.07;6.10;;;;;;;;;;5006481;28;20499;-72
2021/03/31 05:06:44;;;;;;;14.00;7.57;;;;;;;;;;5013046;28;20410;-69
2021/03/31 05:09:10;;;;;;;8.30;6.23;;;;;;;;;;5010641;28;20464;-70
2021/03/31 05:11:36;;;;;;;11.73;6.57;;;;;;;;;;5011118;28;20473;-71
2021/03/31 05:14:02;;;;;;;8.77;5.72;;;;;;;;;;5012504;28;20460;-69
2021/03/31 05:16:28;;;;;;;9.00;6.13;;;;;;;;;;5011349;28;20194;-69
2021/03/31 05:18:54;;;;;;;7.43;6.10;;;;;;;;;;5003593;28;20621;-70
2021/03/31 05:21:20;;;;;;;13.07;5.50;;;;;;;;;;4998598;28;20465;-71
2021/03/31 05:23:46;;;;;;;7.47;5.60;;;;;;;;;;4992918;28;20417;-70
2021/03/31 05:26:12;;;;;;;8.53;7.63;;;;;;;;;;4992773;28;20419;-70
2021/03/31 05:28:38;;;;;;;10.85;5.68;;;;;;;;;;5012032;28;20924;-70
2021/03/31 05:31:04;;;;;;;7.43;5.30;;;;;;;;;;5012092;28;20218;-71
2021/03/31 05:33:30;;;;;;;6.30;5.53;;;;;;;;;;5009834;28;20420;-70
2021/03/31 05:35:56;;;;;;;10.90;6.20;;;;;;;;;;5005561;28;20457;-71
2021/03/31 05:38:22;;;;;;;9.10;6.80;;;;;;;;;;5010178;28;20412;-71
2021/03/31 05:40:49;;;;;;;9.23;6.40;;;;;;;;;;5012024;28;20580;-71
2021/03/31 05:43:16;;;;;;;7.65;6.10;;;;;;;;;;5011039;28;20437;-71
2021/03/31 05:45:42;;;;;;;7.32;4.95;;;;;;;;;;5004072;28;20179;-71
2021/03/31 05:48:09;;;;;;;8.73;6.20;;;;;;;;;;5011656;28;20232;-71
2021/03/31 05:50:35;;;;;;;9.40;6.22;;;;;;;;;;5011162;28;20219;-70
2021/03/31 05:53:01;;;;;;;11.52;6.82;;;;;;;;;;5011326;28;20233;-70
2021/03/31 05:55:27;;;;;;;9.70;6.20;;;;;;;;;;5012004;28;20171;-71
2021/03/31 05:57:54;;;;;;;8.00;5.80;;;;;;;;;;5011807;28;20509;-70
2021/03/31 06:00:20;;;;;;;8.88;6.40;;;;;;;;;;5011955;28;20509;-71
2021/03/31 06:02:47;;;;;;;7.00;6.05;;;;;;;;;;5011118;28;20241;-71
2021/03/31 06:05:14;;;;;;;8.15;5.95;;;;;;;;;;5011505;28;20237;-71
2021/03/31 06:07:43;;;;;;;10.30;6.22;;;;;;;;;;5011997;28;20679;-70
2021/03/31 06:10:19;;;;;;;11.15;6.10;;;;;;;;;;4992265;28;20273;-70
2021/03/31 06:12:48;;;;;;;6.80;5.60;;;;;;;;;;5000492;28;20185;-70
2021/03/31 06:15:21;;;;;;;8.15;6.63;;;;;;;;;;5003430;28;20262;-70
2021/03/31 06:17:49;;;;;;;12.05;5.80;;;;;;;;;;4992444;28;20182;-74
2021/03/31 06:20:35;;;;;;;9.40;5.20;;;;;;;;;;4994970;28;20188;-73
2021/03/31 06:25:45;;;;;;;10.77;6.80;;;;;;;;;;5011832;28;20251;-72
2021/03/31 06:28:11;;;;;;;11.68;5.55;;;;;;;;;;5010485;28;20193;-72
2021/03/31 06:30:37;;;;;;;5.80;4.73;;;;;;;;;;5024115;22;20202;-72
2021/03/31 06:33:03;;;;;;;10.80;7.03;;;;;;;;;;4980834;28;20431;-72
2021/03/31 06:35:29;;;;;;;9.37;5.50;;;;;;;;;;4988690;28;20431;-72
2021/03/31 06:38:08;;;;;;;12.68;7.10;;;;;;;;;;4957644;29;20874;-72
2021/03/31 06:44:03;;;;;;;8.65;5.95;;;;;;;;;;4971506;28;20196;-72
2021/03/31 06:46:17;;;;;;;8.15;6.00;;;;;;;;;;4978604;28;20320;-73
2021/03/31 06:48:47;;;;;;;10.05;6.65;;;;;;;;;;4976072;28;20567;-72
2021/03/31 06:51:23;;;;;;;9.52;5.55;;;;;;;;;;4973816;28;20204;-72
2021/03/31 06:53:49;;;;;;;14.73;6.25;;;;;;;;;;4975040;28;20180;-72
2021/03/31 06:56:15;;;;;;;8.30;6.20;;;;;;;;;;4978096;28;20261;-72
2021/03/31 06:58:41;;;;;;;11.50;7.20;;;;;;;;;;4976368;28;20408;-72
2021/03/31 07:01:26;;;;;;;9.27;6.50;;;;;;;;;;4976085;28;20434;-72
2021/03/31 07:03:52;;;;;;;12.10;6.53;;;;;;;;;;4971598;28;20953;-72
2021/03/31 07:06:19;;;;;;;9.20;6.63;;;;;;;;;;4956983;28;20177;-72
2021/03/31 07:08:46;;;;;;;15.07;6.50;;;;;;;;;;4959483;28;20203;-72
2021/03/31 07:11:12;;;;;;;14.10;7.00;;;;;;;;;;4976115;28;20192;-72
2021/03/31 07:13:38;;;;;;;11.70;6.13;;;;;;;;;;4983066;28;20203;-72
2021/03/31 07:16:05;;;;;;;9.10;6.90;;;;;;;;;;4967673;28;20841;-72
2021/03/31 07:18:33;;;;;;;17.05;7.25;;;;;;;;;;4978647;28;20606;-72
2021/03/31 07:20:59;;;;;;;6.65;5.93;;;;;;;;;;4976970;28;20232;-72
2021/03/31 07:23:26;;;;;;;10.45;5.70;;;;;;;;;;4975799;28;20181;-72
2021/03/31 07:25:52;;;;;;;10.45;8.30;;;;;;;;;;4975967;28;20235;-72
2021/03/31 07:28:21;;;;;;;14.40;7.32;;;;;;;;;;4994952;28;20270;-72
2021/03/31 07:30:48;;;;;;;10.13;6.68;;;;;;;;;;4977720;28;20226;-72
2021/03/31 07:33:18;;;;;;;11.35;6.18;;;;;;;;;;4972031;28;20177;-72
2021/03/31 07:35:45;;;;;;;20.13;6.27;;;;;;;;;;4975914;28;20694;-72
2021/03/31 07:38:12;;;;;;;9.80;6.75;;;;;;;;;;4975017;28;20848;-72
2021/03/31 07:40:38;;;;;;;9.53;6.80;;;;;;;;;;4975116;28;20193;-73
2021/03/31 07:43:10;;;;;;;9.27;6.60;;;;;;;;;;4988862;28;20474;-71
2021/03/31 07:45:38;;;;;;;9.88;7.40;;;;;;;;;;4982669;28;20695;-71
2021/03/31 07:48:04;;;;;;;16.38;12.23;;;;;;;;;;4975252;28;20247;-71
2021/03/31 07:50:32;;;;;;;12.97;7.63;;;;;;;;;;4975246;28;20327;-72
2021/03/31 07:52:59;;;;;;;14.88;7.03;;;;;;;;;;4975260;28;20957;-71
2021/03/31 07:55:31;;;;;;;9.83;5.80;;;;;;;;;;4987335;28;20191;-71
2021/03/31 07:58:16;;;;;;;15.90;7.77;;;;;;;;;;4994543;28;20428;-71
2021/03/31 08:00:48;;;;;;;11.60;6.30;;;;;;;;;;4993900;28;20818;-71
2021/03/31 08:03:18;;;;;;;10.00;6.10;;;;;;;;;;4974926;28;20279;-71
2021/03/31 08:06:03;;;;;;;15.00;8.27;;;;;;;;;;4968880;28;20438;-71
2021/03/31 08:08:29;;;;;;;8.80;6.00;;;;;;;;;;4974472;28;20424;-71
2021/03/31 08:10:55;;;;;;;11.03;6.90;;;;;;;;;;4973938;28;20875;-71
2021/03/31 08:13:30;;;;;;;14.73;9.77;;;;;;;;;;4976430;28;20405;-71
2021/03/31 08:15:56;;;;;;;17.33;7.50;;;;;;;;;;4975161;28;20415;-71
2021/03/31 08:18:23;;;;;;;11.47;7.40;;;;;;;;;;4989334;28;20444;-72
2021/03/31 08:20:49;;;;;;;13.77;6.70;;;;;;;;;;4974494;28;20452;-71
2021/03/31 08:23:15;;;;;;;21.57;7.93;;;;;;;;;;4974694;28;20858;-70
2021/03/31 08:25:41;;;;;;;9.17;6.60;;;;;;;;;;4974707;28;20761;-71
2021/03/31 08:28:08;;;;;;;16.27;7.60;;;;;;;;;;4989155;28;20441;-71
2021/03/31 08:30:35;;;;;;;12.70;7.47;;;;;;;;;;4993915;28;20474;-71
2021/03/31 08:33:04;;;;;;;11.27;7.30;;;;;;;;;;4981949;28;20469;-71
2021/03/31 08:35:30;;;;;;;22.63;7.33;;;;;;;;;;4988444;28;20419;-71
2021/03/31 08:37:57;;;;;;;11.03;6.17;;;;;;;;;;4973881;28;20925;-71
2021/03/31 08:40:28;;;;;;;7.43;6.27;;;;;;;;;;4972398;28;20614;-71
2021/03/31 08:42:57;;;;;;;12.07;7.10;;;;;;;;;;4980537;28;20393;-71
2021/03/31 08:45:32;;;;;;;11.43;6.90;;;;;;;;;;4994019;28;20469;-71
2021/03/31 08:47:59;;;;;;;11.23;8.10;;;;;;;;;;4994338;28;20437;-71
2021/03/31 08:50:34;;;;;;;11.67;7.50;;;;;;;;;;4993603;28;20461;-71
2021/03/31 08:53:01;;;;;;;17.90;10.27;;;;;;;;;;4979648;28;20989;-71
2021/03/31 08:55:31;;;;;;;11.30;7.83;;;;;;;;;;4970320;28;20444;-71
2021/03/31 08:57:57;;;;;;;13.47;7.23;;;;;;;;;;4973942;28;20878;-71
2021/03/31 09:00:23;;;;;;;10.60;7.00;;;;;;;;;;4988849;28;20423;-71
2021/03/31 09:02:49;;;;;;;8.93;6.67;;;;;;;;;;4971780;28;20446;-71
2021/03/31 09:05:15;;;;;;;12.20;7.33;;;;;;;;;;4974115;28;20516;-71
2021/03/31 09:07:42;;;;;;;11.07;6.80;;;;;;;;;;4973717;28;20488;-71
2021/03/31 09:10:12;;;;;;;21.30;9.13;;;;;;;;;;4972254;28;20471;-72
2021/03/31 09:12:38;;;;;;;12.27;6.70;;;;;;;;;;4988080;28;20493;-72
2021/03/31 09:15:04;;;;;;;15.33;7.10;;;;;;;;;;4993405;28;20487;-72
2021/03/31 09:17:31;;;;;;;10.00;7.27;;;;;;;;;;4991304;28;20501;-72
2021/03/31 09:19:58;;;;;;;10.47;7.07;;;;;;;;;;4973825;28;20447;-72
2021/03/31 09:22:26;;;;;;;10.27;6.97;;;;;;;;;;4973681;28;20439;-72
2021/03/31 09:24:52;;;;;;;17.93;7.77;;;;;;;;;;4972026;28;21452;-73
2021/03/31 09:27:23;;;;;;;11.40;7.30;;;;;;;;;;4981589;28;20437;-72
2021/03/31 09:29:50;;;;;;;12.87;7.40;;;;;;;;;;4992900;28;20471;-72
2021/03/31 09:32:18;;;;;;;13.30;7.20;;;;;;;;;;4991053;28;20483;-73
2021/03/31 09:34:45;;;;;;;11.80;7.67;;;;;;;;;;4965629;28;20405;-72
2021/03/31 09:37:12;;;;;;;12.73;7.13;;;;;;;;;;4973442;28;20409;-73
2021/03/31 09:39:43;;;;;;;12.00;7.07;;;;;;;;;;4973545;28;20430;-72
2021/03/31 09:42:09;;;;;;;9.03;6.93;;;;;;;;;;4979859;28;20444;-72
2021/03/31 09:44:37;;;;;;;11.70;6.87;;;;;;;;;;4983130;28;20423;-72
2021/03/31 09:47:03;;;;;;;11.97;6.90;;;;;;;;;;4972936;28;20773;-71
2021/03/31 09:49:29;;;;;;;11.73;6.97;;;;;;;;;;4968295;28;21298;-72
2021/03/31 09:51:55;;;;;;;8.43;6.60;;;;;;;;;;4965288;28;20527;-72
2021/03/31 09:54:25;;;;;;;9.20;7.30;;;;;;;;;;4973318;28;20502;-72
2021/03/31 09:56:51;;;;;;;8.33;7.40;;;;;;;;;;4971842;28;20473;-72
2021/03/31 09:59:17;;;;;;;11.90;6.90;;;;;;;;;;4972993;28;20518;-72
2021/03/31 10:01:43;;;;;;;14.73;7.00;;;;;;;;;;4971998;28;20895;-72
2021/03/31 10:04:10;;;;;;;17.07;8.13;;;;;;;;;;4971786;28;20438;-72
2021/03/31 10:06:36;;;;;;;9.93;7.87;;;;;;;;;;4972588;28;20451;-71
2021/03/31 10:09:03;;;;;;;8.40;6.70;;;;;;;;;;4971474;28;20518;-71
2021/03/31 10:11:35;;;;;;;9.83;6.57;;;;;;;;;;4969537;28;20484;-71
2021/03/31 10:14:02;;;;;;;9.13;6.57;;;;;;;;;;4972572;28;20857;-71
2021/03/31 10:16:33;;;;;;;13.40;8.37;;;;;;;;;;4972814;28;20647;-71
2021/03/31 10:18:59;;;;;;;16.40;7.37;;;;;;;;;;4973027;28;20447;-71
2021/03/31 10:21:30;;;;;;;16.47;7.40;;;;;;;;;;4972858;28;20887;-71
2021/03/31 10:23:56;;;;;;;10.00;6.73;;;;;;;;;;4973083;28;20427;-70
2021/03/31 10:26:29;;;;;;;12.20;7.27;;;;;;;;;;4972595;28;20427;-71
2021/03/31 10:28:56;;;;;;;9.93;6.23;;;;;;;;;;4972999;28;20957;-70
2021/03/31 10:31:28;;;;;;;9.57;6.00;;;;;;;;;;4971852;28;20447;-70
2021/03/31 10:33:55;;;;;;;10.10;6.20;;;;;;;;;;4972006;28;20453;-71
2021/03/31 10:36:54;;;;;;;7.57;6.00;;;;;;;;;;4972833;28;20403;-71
2021/03/31 10:47:27;;;;;;;12.40;6.90;;;;;;;;;;4972444;28;20903;-71
2021/03/31 10:49:58;;;;;;;9.30;6.60;;;;;;;;;;4971758;28;20564;-71
2021/03/31 10:52:27;;;;;;;12.00;6.80;;;;;;;;;;4972613;28;20510;-70
2021/03/31 10:54:55;;;;;;;12.30;6.73;;;;;;;;;;4973002;28;20438;-70
2021/03/31 10:57:21;;;;;;;9.20;5.93;;;;;;;;;;4973087;28;20435;-70
2021/03/31 10:59:47;;;;;;;6.70;5.57;;;;;;;;;;4972198;28;20428;-70
2021/03/31 11:02:13;;;;;;;6.50;5.17;;;;;;;;;;4972053;28;20531;-70
2021/03/31 11:04:39;;;;;;;10.33;5.70;;;;;;;;;;4972798;28;20857;-71
2021/03/31 11:07:05;;;;;;;9.53;5.60;;;;;;;;;;4972749;28;20941;-71
2021/03/31 11:09:31;;;;;;;10.17;6.30;;;;;;;;;;4970821;28;20505;-71
2021/03/31 11:11:58;;;;;;;5.67;4.87;;;;;;;;;;4977335;28;20493;-71
2021/03/31 11:14:24;;;;;;;9.10;5.30;;;;;;;;;;4988628;28;20509;-70
2021/03/31 11:17:01;;;;;;;8.53;5.50;;;;;;;;;;4972523;28;20784;-70
2021/03/31 11:27:57;;;;;;;8.53;4.70;;;;;;;;;;4975658;28;20430;-70
2021/03/31 11:30:23;;;;;;;5.63;4.40;;;;;;;;;;4974066;28;20963;-70
2021/03/31 11:32:49;;;;;;;5.30;4.80;;;;;;;;;;4981614;28;20532;-71
2021/03/31 11:35:15;;;;;;;5.10;4.63;;;;;;;;;;4995141;28;20482;-71
2021/03/31 11:37:42;;;;;;;7.43;5.27;;;;;;;;;;4989298;28;20447;-71
2021/03/31 11:40:08;;;;;;;6.63;4.73;;;;;;;;;;4975596;28;20415;-71
2021/03/31 11:42:34;;;;;;;6.00;4.30;;;;;;;;;;4984951;28;20964;-71
2021/03/31 11:45:00;;;;;;;4.30;3.43;;;;;;;;;;4977800;28;20486;-72
2021/03/31 11:47:26;;;;;;;4.50;3.70;;;;;;;;;;4971454;28;20554;-72
2021/03/31 11:49:52;;;;;;;6.20;3.87;;;;;;;;;;4974969;28;20542;-72
2021/03/31 11:52:18;;;;;;;4.60;3.57;;;;;;;;;;4969555;28;20875;-71
2021/03/31 11:54:44;;;;;;;6.93;4.23;;;;;;;;;;4956066;28;20492;-71
2021/03/31 11:57:10;;;;;;;6.50;4.40;;;;;;;;;;4978829;28;20926;-71
2021/03/31 11:59:36;;;;;;;4.30;3.90;;;;;;;;;;4992151;28;20419;-72
2021/03/31 12:02:02;;;;;;;6.47;3.50;;;;;;;;;;4974341;28;20502;-70
2021/03/31 12:04:28;;;;;;;4.77;3.60;;;;;;;;;;4975077;28;20195;-71
2021/03/31 12:06:54;;;;;;;4.87;2.60;;;;;;;;;;4975186;28;20450;-71
2021/03/31 12:09:20;;;;;;;3.07;2.77;;;;;;;;;;4973355;28;20499;-71
2021/03/31 12:11:46;;;;;;;4.73;2.77;;;;;;;;;;4974165;28;20453;-71
2021/03/31 12:14:12;;;;;;;2.67;2.47;;;;;;;;;;4973365;28;20526;-71
2021/03/31 12:16:38;;;;;;;2.70;2.27;;;;;;;;;;4973430;28;20431;-71
2021/03/31 12:19:04;;;;;;;2.57;2.37;;;;;;;;;;4974560;28;20180;-71
2021/03/31 12:21:30;;;;;;;3.33;2.77;;;;;;;;;;4974345;28;20977;-71
2021/03/31 12:23:56;;;;;;;6.90;3.17;;;;;;;;;;4973530;28;20211;-72
2021/03/31 12:26:21;;;;;;;2.90;2.70;;;;;;;;;;4973617;28;20946;-72
2021/03/31 12:28:56;;;;;;;8.17;3.00;;;;;;;;;;4974549;28;20777;-72
2021/03/31 12:31:22;;;;;;;4.30;2.70;;;;;;;;;;4974606;28;20466;-72
2021/03/31 12:33:48;;;;;;;2.23;2.03;;;;;;;;;;4974416;28;20963;-72
2021/03/31 12:36:14;;;;;;;2.70;2.13;;;;;;;;;;4974605;28;20180;-72
2021/03/31 12:38:40;;;;;;;2.50;2.30;;;;;;;;;;4972071;28;20456;-72
2021/03/31 12:41:06;;;;;;;5.20;3.47;;;;;;;;;;4972320;28;20451;-72
2021/03/31 12:43:32;;;;;;;4.70;2.50;;;;;;;;;;4974222;28;20192;-72
2021/03/31 12:45:59;;;;;;;2.40;2.20;;;;;;;;;;4973766;28;20415;-72
2021/03/31 12:48:25;;;;;;;3.40;2.60;;;;;;;;;;4974496;28;20478;-72
2021/03/31 12:50:54;;;;;;;3.83;2.70;;;;;;;;;;4974611;28;20522;-72
2021/03/31 12:53:23;;;;;;;4.47;2.93;;;;;;;;;;4974248;28;20486;-72
2021/03/31 12:55:51;;;;;;;4.60;2.30;;;;;;;;;;4974206;28;20412;-72
2021/03/31 12:58:19;;;;;;;2.83;2.60;;;;;;;;;;4973898;28;20428;-72
2021/03/31 13:00:46;;;;;;;9.97;3.77;;;;;;;;;;4974026;28;20459;-72
2021/03/31 13:03:12;;;;;;;3.67;2.67;;;;;;;;;;4973640;28;20475;-72
2021/03/31 13:05:39;;;;;;;3.03;2.73;;;;;;;;;;4974027;28;20411;-72
2021/03/31 13:08:08;;;;;;;4.30;3.20;;;;;;;;;;4973044;28;20432;-72
2021/03/31 13:10:34;;;;;;;3.00;2.50;;;;;;;;;;4971621;28;20476;-72
2021/03/31 13:16:02;;;;;;;2.97;2.67;;;;;;;;;;4980177;28;20439;-72
2021/03/31 13:26:29;;;;;;;5.23;2.33;;;;;;;;;;4964362;28;20460;-72
2021/03/31 13:31:33;;;;;;;2.60;2.40;;;;;;;;;;4977917;28;20950;-72
2021/03/31 13:34:11;;;;;;;4.20;2.30;;;;;;;;;;4993227;28;20405;-72
2021/03/31 13:39:13;;;;;;;4.80;2.63;;;;;;;;;;4972947;28;20464;-71
2021/03/31 13:41:39;;;;;;;2.63;2.43;;;;;;;;;;4971622;28;20973;-71
2021/03/31 13:44:06;;;;;;;4.50;3.00;;;;;;;;;;4973073;28;20412;-71
2021/03/31 13:46:35;;;;;;;2.40;2.20;;;;;;;;;;4973070;28;20978;-71
2021/03/31 13:49:10;;;;;;;3.53;2.20;;;;;;;;;;4973485;28;20396;-71
2021/03/31 13:51:57;;;;;;;3.97;2.03;;;;;;;;;;4982978;28;20807;-72
2021/03/31 13:54:23;;;;;;;3.00;2.20;;;;;;;;;;4992598;28;20398;-71
2021/03/31 13:56:49;;;;;;;5.67;3.20;;;;;;;;;;4988609;28;20427;-71
2021/03/31 13:59:15;;;;;;;3.23;2.27;;;;;;;;;;4973240;28;20517;-71
2021/03/31 14:01:42;;;;;;;4.50;2.67;;;;;;;;;;4980728;28;20458;-71
2021/03/31 14:04:08;;;;;;;4.50;2.60;;;;;;;;;;4973293;28;20843;-71
2021/03/31 14:06:34;;;;;;;3.50;2.60;;;;;;;;;;4973166;28;20414;-71
2021/03/31 14:09:00;;;;;;;3.20;2.67;;;;;;;;;;4972182;28;20835;-71
2021/03/31 14:11:26;;;;;;;4.83;2.97;;;;;;;;;;4972923;28;20881;-70
2021/03/31 14:13:52;;;;;;;3.00;2.70;;;;;;;;;;4973039;28;20183;-71
2021/03/31 14:16:18;;;;;;;7.30;2.90;;;;;;;;;;4972609;28;20843;-71
2021/03/31 14:18:46;;;;;;;3.10;2.77;;;;;;;;;;4972848;28;20428;-71
2021/03/31 14:21:12;;;;;;;2.93;2.67;;;;;;;;;;4978355;28;20474;-71
2021/03/31 14:23:38;;;;;;;3.40;2.33;;;;;;;;;;4992037;28;20403;-71
2021/03/31 14:26:04;;;;;;;6.13;2.67;;;;;;;;;;4992554;28;20475;-71
2021/03/31 14:28:30;;;;;;;2.50;2.27;;;;;;;;;;4992317;28;20501;-74
2021/03/31 14:30:55;;;;;;;3.40;2.60;;;;;;;;;;4991404;28;20981;-71
2021/03/31 14:33:22;;;;;;;3.00;2.40;;;;;;;;;;4989784;28;20403;-71
2021/03/31 14:35:47;;;;;;;5.97;2.33;;;;;;;;;;4972953;28;20180;-71
2021/03/31 14:38:13;;;;;;;4.17;1.90;;;;;;;;;;4972764;28;20535;-71
2021/03/31 14:40:39;;;;;;;3.30;3.00;;;;;;;;;;4970624;28;20479;-70
2021/03/31 14:43:05;;;;;;;4.33;2.50;;;;;;;;;;4972342;28;20443;-72
2021/03/31 14:45:31;;;;;;;3.60;2.93;;;;;;;;;;4972282;28;20184;-71
2021/03/31 14:48:00;;;;;;;8.67;2.70;;;;;;;;;;4972768;28;20184;-71
2021/03/31 14:50:31;;;;;;;5.33;3.73;;;;;;;;;;4974814;28;20446;-71
2021/03/31 15:00:58;;;;;;;3.00;2.70;;;;;;;;;;4977265;28;20475;-71
2021/03/31 15:03:24;;;;;;;6.17;3.70;;;;;;;;;;4988327;28;20861;-72
2021/03/31 15:05:51;;;;;;;3.13;2.47;;;;;;;;;;4979563;28;20424;-72
2021/03/31 15:08:17;;;;;;;2.90;2.67;;;;;;;;;;4975379;28;20408;-72
2021/03/31 15:10:44;;;;;;;3.10;2.50;;;;;;;;;;4976125;28;20415;-72
2021/03/31 15:13:10;;;;;;;6.40;3.07;;;;;;;;;;4975541;28;20439;-72
2021/03/31 15:15:36;;;;;;;4.70;3.37;;;;;;;;;;4975670;28;20423;-72
2021/03/31 15:18:03;;;;;;;4.63;3.63;;;;;;;;;;4976054;28;20419;-72
2021/03/31 15:23:38;;;;;;;4.73;4.33;;;;;;;;;;4974360;28;20900;-72
2021/03/31 15:26:04;;;;;;;5.10;3.80;;;;;;;;;;4975709;28;20887;-72
2021/03/31 15:28:30;;;;;;;4.80;3.90;;;;;;;;;;4974115;28;20503;-72
2021/03/31 15:30:56;;;;;;;6.10;4.60;;;;;;;;;;4975483;28;20443;-72